createdAt,value
2019-03-29T00:00:55.436Z,99.90
2019-03-29T00:03:24.814Z,99.90
2019-03-29T00:05:54.264Z,99.90
2019-03-29T00:08:23.890Z,99.90
2019-03-29T00:10:53.353Z,99.90
2019-03-29T00:13:23.217Z,99.90
2019-03-29T00:15:52.898Z,99.90
2019-03-29T00:18:22.345Z,99.90
2019-03-29T00:20:51.993Z,99.90
2019-03-29T00:23:21.483Z,99.90
2019-03-29T00:25:50.973Z,99.90
2019-03-29T00:28:20.453Z,99.90
2019-03-29T00:30:49.834Z,99.90
2019-03-29T00:33:20.232Z,99.90
2019-03-29T00:35:49.777Z,99.90
2019-03-29T00:38:19.345Z,99.90
2019-03-29T00:40:48.788Z,99.90
2019-03-29T00:43:18.165Z,99.90
2019-03-29T00:45:47.639Z,99.90
2019-03-29T00:48:17.099Z,99.90
2019-03-29T00:50:46.660Z,99.90
2019-03-29T00:53:16.093Z,99.90
2019-03-29T00:55:46.887Z,99.90
2019-03-29T00:58:16.457Z,99.90
2019-03-29T01:00:46.261Z,99.90
2019-03-29T01:03:15.790Z,99.90
2019-03-29T01:05:45.258Z,99.90
2019-03-29T01:08:14.797Z,99.90
2019-03-29T01:10:44.253Z,99.90
2019-03-29T01:13:13.636Z,99.90
2019-03-29T01:15:43.276Z,99.90
2019-03-29T01:18:12.772Z,99.90
2019-03-29T01:20:42.557Z,99.90
2019-03-29T01:23:12.032Z,99.90
2019-03-29T01:25:41.409Z,99.90
2019-03-29T01:28:11.878Z,99.90
2019-03-29T01:30:41.614Z,99.90
2019-03-29T01:33:11.068Z,99.90
2019-03-29T01:35:40.617Z,99.90
2019-03-29T01:38:21.138Z,99.90
2019-03-29T01:40:41.375Z,99.90
2019-03-29T01:43:11.026Z,99.90
2019-03-29T01:45:40.505Z,99.90
2019-03-29T01:48:10.007Z,99.90
2019-03-29T01:50:39.512Z,99.90
2019-03-29T01:53:09.038Z,99.90
2019-03-29T01:55:38.568Z,99.90
2019-03-29T01:58:07.944Z,99.90
2019-03-29T02:00:37.457Z,99.90
2019-03-29T02:03:06.908Z,99.90
2019-03-29T02:05:36.449Z,99.90
2019-03-29T02:08:06.136Z,99.90
2019-03-29T02:10:36.146Z,99.90
2019-03-29T02:13:05.617Z,99.90
2019-03-29T02:15:35.208Z,99.90
2019-03-29T02:18:04.781Z,99.90
2019-03-29T02:20:34.249Z,99.90
2019-03-29T02:23:04.130Z,99.90
2019-03-29T02:25:33.934Z,99.90
2019-03-29T02:28:03.457Z,99.90
2019-03-29T02:30:33.466Z,99.90
2019-03-29T02:33:03.006Z,99.90
2019-03-29T02:35:33.318Z,99.90
2019-03-29T02:38:02.802Z,99.90
2019-03-29T02:40:32.717Z,99.90
2019-03-29T02:43:02.202Z,99.90
2019-03-29T02:45:33.258Z,99.90
2019-03-29T02:48:02.715Z,99.90
2019-03-29T02:50:32.360Z,99.90
2019-03-29T02:53:01.989Z,99.90
2019-03-29T02:55:31.443Z,99.90
2019-03-29T02:58:00.835Z,99.90
2019-03-29T03:00:30.292Z,99.90
2019-03-29T03:02:59.742Z,99.90
2019-03-29T03:05:29.265Z,99.90
2019-03-29T03:07:58.774Z,99.90
2019-03-29T03:10:28.278Z,99.90
2019-03-29T03:12:57.717Z,99.90
2019-03-29T03:15:27.177Z,99.90
2019-03-29T03:17:56.702Z,99.90
2019-03-29T03:20:26.271Z,99.90
2019-03-29T03:22:55.814Z,99.90
2019-03-29T03:25:25.272Z,99.90
2019-03-29T03:27:56.493Z,99.90
2019-03-29T03:30:26.071Z,99.90
2019-03-29T03:32:55.622Z,99.90
2019-03-29T03:35:25.139Z,99.90
2019-03-29T03:37:55.264Z,99.90
2019-03-29T03:40:24.804Z,99.90
2019-03-29T03:42:54.343Z,99.90
2019-03-29T03:45:24.125Z,99.90
2019-03-29T03:47:53.570Z,99.90
2019-03-29T03:50:42.809Z,99.90
2019-03-29T03:53:12.367Z,99.90
2019-03-29T03:55:42.356Z,99.90
2019-03-29T03:58:12.512Z,99.90
2019-03-29T04:00:56.195Z,99.90
2019-03-29T04:03:27.252Z,99.90
2019-03-29T04:05:57.079Z,99.90
2019-03-29T04:08:26.949Z,99.90
2019-03-29T04:10:56.663Z,99.90
2019-03-29T04:13:26.385Z,99.90
2019-03-29T04:15:55.901Z,99.90
2019-03-29T04:18:25.461Z,99.90
2019-03-29T04:20:54.915Z,99.90
2019-03-29T04:23:24.362Z,99.90
2019-03-29T04:25:53.941Z,99.90
2019-03-29T04:28:23.406Z,99.90
2019-03-29T04:30:52.885Z,99.90
2019-03-29T04:33:22.377Z,99.90
2019-03-29T04:35:52.147Z,99.90
2019-03-29T04:38:21.679Z,99.90
2019-03-29T04:40:51.314Z,99.90
2019-03-29T04:43:20.844Z,99.90
2019-03-29T04:45:50.314Z,99.90
2019-03-29T04:48:19.807Z,99.90
2019-03-29T04:50:49.345Z,99.90
2019-03-29T04:53:18.870Z,99.90
2019-03-29T04:55:48.478Z,99.90
2019-03-29T04:58:17.930Z,99.90
2019-03-29T05:00:47.510Z,99.90
2019-03-29T05:03:17.050Z,99.90
2019-03-29T05:05:46.574Z,99.90
2019-03-29T05:08:15.967Z,99.90
2019-03-29T05:10:46.041Z,99.90
2019-03-29T05:13:15.513Z,99.90
2019-03-29T05:15:44.974Z,99.90
2019-03-29T05:18:14.921Z,99.90
2019-03-29T05:20:44.393Z,99.90
2019-03-29T05:23:14.012Z,99.90
2019-03-29T05:25:43.642Z,99.90
2019-03-29T05:28:13.690Z,99.90
2019-03-29T05:30:43.242Z,99.90
2019-03-29T05:33:12.746Z,99.90
2019-03-29T05:35:42.373Z,99.90
2019-03-29T05:38:11.837Z,99.90
2019-03-29T05:40:41.301Z,99.90
2019-03-29T05:43:10.853Z,99.90
2019-03-29T05:45:40.307Z,99.90
2019-03-29T05:48:09.905Z,99.90
2019-03-29T05:50:39.353Z,99.90
2019-03-29T05:53:08.881Z,99.90
2019-03-29T05:55:38.423Z,99.90
2019-03-29T05:58:07.876Z,99.90
2019-03-29T06:00:37.481Z,99.90
2019-03-29T06:03:09.913Z,99.90
2019-03-29T06:05:38.236Z,99.90
2019-03-29T06:08:07.634Z,99.90
2019-03-29T06:10:48.297Z,99.90
2019-03-29T06:13:08.778Z,99.90
2019-03-29T06:15:38.169Z,99.90
2019-03-29T06:18:07.653Z,99.90
2019-03-29T06:20:37.120Z,99.90
2019-03-29T06:23:06.586Z,99.90
2019-03-29T06:25:36.309Z,99.90
2019-03-29T06:28:05.847Z,99.90
2019-03-29T06:30:35.417Z,99.90
2019-03-29T06:33:05.054Z,99.90
2019-03-29T06:35:38.300Z,99.90
2019-03-29T06:38:09.706Z,99.90
2019-03-29T06:40:39.314Z,99.90
2019-03-29T06:43:08.972Z,99.90
2019-03-29T06:45:47.949Z,99.90
2019-03-29T06:48:10.597Z,99.90
2019-03-29T06:50:40.365Z,99.90
2019-03-29T06:53:10.085Z,99.90
2019-03-29T06:55:39.658Z,99.90
2019-03-29T06:58:09.281Z,99.90
2019-03-29T07:00:38.764Z,99.90
2019-03-29T07:03:08.187Z,99.90
2019-03-29T07:05:37.724Z,99.50
2019-03-29T07:08:07.414Z,97.70
2019-03-29T07:10:36.964Z,97.10
2019-03-29T07:13:06.510Z,95.50
2019-03-29T07:15:35.997Z,94.40
2019-03-29T07:18:05.630Z,94.30
2019-03-29T07:20:35.022Z,92.90
2019-03-29T07:23:04.657Z,93.70
2019-03-29T07:25:34.052Z,90.00
2019-03-29T07:28:03.646Z,90.60
2019-03-29T07:30:33.251Z,85.50
2019-03-29T07:33:02.867Z,85.40
2019-03-29T07:35:32.410Z,85.10
2019-03-29T07:38:01.973Z,81.80
2019-03-29T07:40:31.517Z,78.80
2019-03-29T07:43:00.979Z,77.10
2019-03-29T07:45:30.589Z,76.00
2019-03-29T07:48:00.153Z,73.60
2019-03-29T07:50:29.721Z,73.50
2019-03-29T07:52:59.206Z,73.60
2019-03-29T07:55:28.693Z,70.10
2019-03-29T07:57:58.518Z,71.60
2019-03-29T08:00:28.273Z,71.00
2019-03-29T08:02:57.738Z,63.90
2019-03-29T08:05:27.233Z,62.80
2019-03-29T08:07:56.821Z,60.50
2019-03-29T08:10:31.110Z,58.00
2019-03-29T08:12:57.838Z,55.80
2019-03-29T08:15:27.355Z,56.40
2019-03-29T08:17:57.012Z,59.10
2019-03-29T08:20:39.333Z,57.60
2019-03-29T08:22:57.983Z,53.50
2019-03-29T08:25:27.510Z,55.60
2019-03-29T08:27:56.907Z,55.20
2019-03-29T08:30:26.485Z,49.10
2019-03-29T08:32:56.036Z,50.50
2019-03-29T08:35:25.569Z,51.50
2019-03-29T08:37:55.145Z,51.40
2019-03-29T08:40:24.847Z,48.90
2019-03-29T08:42:54.607Z,47.40
2019-03-29T08:45:24.246Z,53.30
2019-03-29T08:47:53.749Z,46.80
2019-03-29T08:50:23.324Z,44.70
2019-03-29T08:52:53.044Z,43.70
2019-03-29T08:55:22.596Z,45.00
2019-03-29T08:57:52.044Z,50.00
2019-03-29T09:00:31.289Z,44.50
2019-03-29T09:03:01.208Z,43.10
2019-03-29T09:05:30.734Z,45.10
2019-03-29T09:08:00.779Z,42.10
2019-03-29T09:10:30.434Z,42.10
2019-03-29T09:13:00.035Z,47.10
2019-03-29T09:15:29.660Z,40.60
2019-03-29T09:17:59.946Z,43.50
2019-03-29T09:20:29.828Z,41.40
2019-03-29T09:22:59.597Z,41.10
2019-03-29T09:25:29.320Z,40.10
2019-03-29T09:27:58.909Z,42.10
2019-03-29T09:30:28.559Z,39.40
2019-03-29T09:32:58.117Z,38.10
2019-03-29T09:35:27.573Z,37.90
2019-03-29T09:37:57.155Z,37.10
2019-03-29T09:40:26.686Z,39.10
2019-03-29T09:43:07.176Z,40.90
2019-03-29T09:45:27.597Z,36.90
2019-03-29T09:47:57.143Z,36.10
2019-03-29T09:50:26.698Z,36.20
2019-03-29T09:52:56.267Z,36.40
2019-03-29T09:55:25.909Z,39.50
2019-03-29T09:57:55.522Z,33.50
2019-03-29T10:00:25.084Z,33.90
2019-03-29T10:02:54.528Z,33.90
2019-03-29T10:05:24.069Z,37.30
2019-03-29T10:07:53.705Z,35.80
2019-03-29T10:10:23.248Z,36.80
2019-03-29T10:12:52.854Z,35.70
2019-03-29T10:15:22.401Z,36.10
2019-03-29T10:17:51.964Z,35.30
2019-03-29T10:20:21.574Z,34.30
2019-03-29T10:22:51.881Z,34.80
2019-03-29T10:25:21.793Z,36.10
2019-03-29T10:27:51.505Z,37.90
2019-03-29T10:30:40.744Z,37.10
2019-03-29T10:33:10.397Z,37.70
2019-03-29T10:35:51.470Z,37.70
2019-03-29T10:38:11.220Z,36.80
2019-03-29T10:40:40.784Z,36.10
2019-03-29T10:43:10.360Z,35.60
2019-03-29T10:45:40.764Z,37.00
2019-03-29T10:48:10.602Z,35.70
2019-03-29T10:50:40.207Z,36.30
2019-03-29T10:53:09.680Z,36.00
2019-03-29T10:55:39.117Z,35.40
2019-03-29T10:58:09.791Z,36.70
2019-03-29T11:00:41.107Z,36.50
2019-03-29T11:03:10.732Z,36.20
2019-03-29T11:05:40.268Z,36.60
2019-03-29T11:08:11.927Z,36.90
2019-03-29T11:10:41.685Z,38.20
2019-03-29T11:13:13.959Z,38.10
2019-03-29T11:15:42.630Z,39.10
2019-03-29T11:18:12.249Z,39.70
2019-03-29T11:20:41.787Z,41.30
2019-03-29T11:23:11.281Z,42.00
2019-03-29T11:25:40.836Z,41.70
2019-03-29T11:28:10.379Z,41.50
2019-03-29T11:30:42.362Z,42.50
2019-03-29T11:33:11.150Z,41.90
2019-03-29T11:35:40.634Z,42.20
2019-03-29T11:38:10.216Z,43.00
2019-03-29T11:40:39.813Z,43.50
2019-03-29T11:43:09.421Z,44.30
2019-03-29T11:45:39.045Z,44.50
2019-03-29T11:48:09.651Z,45.20
2019-03-29T11:50:39.373Z,44.40
2019-03-29T11:53:08.991Z,44.30
2019-03-29T11:55:38.449Z,43.80
2019-03-29T11:58:08.078Z,44.80
2019-03-29T12:00:39.337Z,45.00
2019-03-29T12:03:09.765Z,46.20
2019-03-29T12:05:39.500Z,46.50
2019-03-29T12:08:09.064Z,46.10
2019-03-29T12:10:38.594Z,46.40
2019-03-29T12:13:09.058Z,46.60
2019-03-29T12:15:39.131Z,46.70
2019-03-29T12:18:08.834Z,46.80
2019-03-29T12:20:38.319Z,47.00
2019-03-29T12:23:08.061Z,46.20
2019-03-29T12:25:37.663Z,46.00
2019-03-29T12:28:07.390Z,45.40
2019-03-29T12:30:37.449Z,46.60
2019-03-29T12:33:07.091Z,47.00
2019-03-29T12:35:36.566Z,46.90
2019-03-29T12:38:06.120Z,47.30
2019-03-29T12:40:35.670Z,47.50
2019-03-29T12:43:05.199Z,47.50
2019-03-29T12:45:34.768Z,47.70
2019-03-29T12:48:04.394Z,47.30
2019-03-29T12:50:34.180Z,47.60
2019-03-29T12:53:03.849Z,47.80
2019-03-29T12:55:33.343Z,47.90
2019-03-29T12:58:02.805Z,47.40
2019-03-29T13:00:32.375Z,47.20
2019-03-29T13:03:01.770Z,47.30
2019-03-29T13:05:31.314Z,46.60
2019-03-29T13:08:00.973Z,46.60
2019-03-29T13:10:30.573Z,47.20
2019-03-29T13:13:00.843Z,47.90
2019-03-29T13:15:30.657Z,48.00
2019-03-29T13:18:00.047Z,46.10
2019-03-29T13:20:29.789Z,47.50
2019-03-29T13:22:59.420Z,47.80
2019-03-29T13:25:28.953Z,47.60
2019-03-29T13:27:59.551Z,47.40
2019-03-29T13:30:29.284Z,47.90
2019-03-29T13:32:58.935Z,47.20
2019-03-29T13:35:28.476Z,47.10
2019-03-29T13:37:58.052Z,47.10
2019-03-29T13:40:27.514Z,47.00
2019-03-29T13:42:57.055Z,46.30
2019-03-29T13:45:28.003Z,47.00
2019-03-29T13:47:57.886Z,47.00
2019-03-29T13:50:27.584Z,47.70
2019-03-29T13:52:57.128Z,47.40
2019-03-29T13:55:26.649Z,47.00
2019-03-29T13:57:56.532Z,47.50
2019-03-29T14:00:26.005Z,46.90
2019-03-29T14:02:55.529Z,47.20
2019-03-29T14:05:25.070Z,47.60
2019-03-29T14:07:54.547Z,47.20
2019-03-29T14:10:24.076Z,46.70
2019-03-29T14:12:53.529Z,46.20
2019-03-29T14:15:23.161Z,46.90
2019-03-29T14:17:52.947Z,47.70
2019-03-29T14:20:33.265Z,46.90
2019-03-29T14:23:04.216Z,46.60
2019-03-29T14:25:33.855Z,46.20
2019-03-29T14:28:03.402Z,46.90
2019-03-29T14:30:32.775Z,47.30
2019-03-29T14:33:02.153Z,47.10
2019-03-29T14:35:31.755Z,47.00
2019-03-29T14:38:01.385Z,47.50
2019-03-29T14:40:30.909Z,47.70
2019-03-29T14:43:00.316Z,47.90
2019-03-29T14:45:29.906Z,47.40
2019-03-29T14:47:59.445Z,47.80
2019-03-29T14:50:28.918Z,47.20
2019-03-29T14:52:58.511Z,47.40
2019-03-29T14:55:28.065Z,48.10
2019-03-29T14:58:02.971Z,47.80
2019-03-29T15:00:40.166Z,47.70
2019-03-29T15:03:10.553Z,47.30
2019-03-29T15:05:40.117Z,47.50
2019-03-29T15:08:09.816Z,46.80
2019-03-29T15:10:39.372Z,47.20
2019-03-29T15:13:08.903Z,46.80
2019-03-29T15:15:38.437Z,47.20
2019-03-29T15:18:08.021Z,46.60
2019-03-29T15:20:37.477Z,46.20
2019-03-29T15:23:07.321Z,47.10
2019-03-29T15:25:36.805Z,46.40
2019-03-29T15:28:06.259Z,46.80
2019-03-29T15:30:35.929Z,46.60
2019-03-29T15:33:05.482Z,46.10
2019-03-29T15:35:34.929Z,46.20
2019-03-29T15:38:04.474Z,46.60
2019-03-29T15:40:34.180Z,46.60
2019-03-29T15:43:03.769Z,47.00
2019-03-29T15:45:33.311Z,47.60
2019-03-29T15:48:02.724Z,46.90
2019-03-29T15:50:32.267Z,47.00
2019-03-29T15:53:01.649Z,47.00
2019-03-29T15:55:31.283Z,47.60
2019-03-29T15:58:00.670Z,47.30
2019-03-29T16:00:31.028Z,47.70
2019-03-29T16:03:00.497Z,47.80
2019-03-29T16:05:29.950Z,48.10
2019-03-29T16:07:59.694Z,47.10
2019-03-29T16:10:29.562Z,47.20
2019-03-29T16:12:59.022Z,47.60
2019-03-29T16:15:36.474Z,47.40
2019-03-29T16:17:59.748Z,47.00
2019-03-29T16:20:29.207Z,47.20
2019-03-29T16:22:58.737Z,47.00
2019-03-29T16:25:28.216Z,47.40
2019-03-29T16:27:57.902Z,47.20
2019-03-29T16:30:27.365Z,47.80
2019-03-29T16:32:56.877Z,47.30
2019-03-29T16:35:26.422Z,47.40
2019-03-29T16:37:57.315Z,47.20
2019-03-29T16:40:30.719Z,47.70
2019-03-29T16:42:58.664Z,47.60
2019-03-29T16:45:28.125Z,47.50
2019-03-29T16:47:57.868Z,47.40
2019-03-29T16:50:27.331Z,48.10
2019-03-29T16:52:56.785Z,48.40
2019-03-29T16:55:26.258Z,48.70
2019-03-29T16:57:55.846Z,48.40
2019-03-29T17:00:25.305Z,48.50
2019-03-29T17:02:54.873Z,48.60
2019-03-29T17:05:24.401Z,49.00
2019-03-29T17:07:53.862Z,49.20
2019-03-29T17:10:23.459Z,49.80
2019-03-29T17:12:52.917Z,49.60
2019-03-29T17:15:22.369Z,49.40
2019-03-29T17:17:52.235Z,49.00
2019-03-29T17:20:21.774Z,49.00
2019-03-29T17:22:51.614Z,49.50
2019-03-29T17:25:21.165Z,49.80
2019-03-29T17:27:52.195Z,49.80
2019-03-29T17:30:35.477Z,49.80
2019-03-29T17:33:05.111Z,50.00
2019-03-29T17:35:34.640Z,50.60
2019-03-29T17:38:04.607Z,50.60
2019-03-29T17:40:34.014Z,52.10
2019-03-29T17:43:03.602Z,53.40
2019-03-29T17:45:33.278Z,53.50
2019-03-29T17:48:02.661Z,54.00
2019-03-29T17:50:32.206Z,53.40
2019-03-29T17:53:02.043Z,54.30
2019-03-29T17:55:31.940Z,54.00
2019-03-29T17:58:01.648Z,55.80
2019-03-29T18:00:31.301Z,55.70
2019-03-29T18:03:01.764Z,57.00
2019-03-29T18:05:31.325Z,57.50
2019-03-29T18:08:00.889Z,58.80
2019-03-29T18:10:30.339Z,57.00
2019-03-29T18:12:59.886Z,57.50
2019-03-29T18:15:29.444Z,57.20
2019-03-29T18:17:58.893Z,57.80
2019-03-29T18:20:28.429Z,57.70
2019-03-29T18:22:58.073Z,57.10
2019-03-29T18:25:27.568Z,57.30
2019-03-29T18:27:57.159Z,57.20
2019-03-29T18:30:40.404Z,58.10
2019-03-29T18:33:09.846Z,58.20
2019-03-29T18:35:39.440Z,57.70
2019-03-29T18:38:09.229Z,58.10
2019-03-29T18:40:38.768Z,59.40
2019-03-29T18:43:08.304Z,58.90
2019-03-29T18:45:41.351Z,59.40
2019-03-29T18:48:08.877Z,59.00
2019-03-29T18:50:38.267Z,59.30
2019-03-29T18:53:08.185Z,60.40
2019-03-29T18:55:37.717Z,59.90
2019-03-29T18:58:07.261Z,59.90
2019-03-29T19:00:36.960Z,59.50
2019-03-29T19:03:06.424Z,59.70
2019-03-29T19:05:35.972Z,58.80
2019-03-29T19:08:05.472Z,59.20
2019-03-29T19:10:35.340Z,59.00
2019-03-29T19:13:04.917Z,58.90
2019-03-29T19:15:34.491Z,59.00
2019-03-29T19:18:04.352Z,58.70
2019-03-29T19:20:34.457Z,58.70
2019-03-29T19:23:04.027Z,58.80
2019-03-29T19:25:33.646Z,58.80
2019-03-29T19:28:03.253Z,59.00
2019-03-29T19:30:32.806Z,58.70
2019-03-29T19:33:02.639Z,58.90
2019-03-29T19:35:32.355Z,59.10
2019-03-29T19:38:01.949Z,59.10
2019-03-29T19:40:31.446Z,59.40
2019-03-29T19:43:01.047Z,59.90
2019-03-29T19:45:34.050Z,60.60
2019-03-29T19:48:03.106Z,62.10
2019-03-29T19:50:32.665Z,62.30
2019-03-29T19:53:02.252Z,63.50
2019-03-29T19:55:31.837Z,62.90
2019-03-29T19:58:01.446Z,62.50
2019-03-29T20:00:40.232Z,61.50
2019-03-29T20:03:09.906Z,63.00
2019-03-29T20:05:39.517Z,61.50
2019-03-29T20:08:09.352Z,62.70
2019-03-29T20:10:38.924Z,61.70
2019-03-29T20:13:08.471Z,64.00
2019-03-29T20:15:38.415Z,62.00
2019-03-29T20:18:07.980Z,62.60
2019-03-29T20:20:37.575Z,63.20
2019-03-29T20:23:07.145Z,64.60
2019-03-29T20:25:36.725Z,63.10
2019-03-29T20:28:06.698Z,65.70
2019-03-29T20:30:36.737Z,62.50
2019-03-29T20:33:08.768Z,62.70
2019-03-29T20:35:38.241Z,65.90
2019-03-29T20:38:07.907Z,65.70
2019-03-29T20:40:38.112Z,66.10
2019-03-29T20:43:08.013Z,67.30
2019-03-29T20:45:37.620Z,66.70
2019-03-29T20:48:07.486Z,67.20
2019-03-29T20:50:37.369Z,66.50
2019-03-29T20:53:07.020Z,67.40
2019-03-29T20:55:36.956Z,67.10
2019-03-29T20:58:06.955Z,68.30
2019-03-29T21:00:36.889Z,69.30
2019-03-29T21:03:06.771Z,69.70
2019-03-29T21:05:36.334Z,70.80
2019-03-29T21:08:05.842Z,71.30
2019-03-29T21:10:35.425Z,70.40
2019-03-29T21:13:07.153Z,70.90
2019-03-29T21:15:36.250Z,72.40
2019-03-29T21:18:05.729Z,73.20
2019-03-29T21:20:35.136Z,72.80
2019-03-29T21:23:04.763Z,75.50
2019-03-29T21:25:34.341Z,75.10
2019-03-29T21:28:04.002Z,72.50
2019-03-29T21:30:33.564Z,73.30
2019-03-29T21:33:03.110Z,75.20
2019-03-29T21:35:32.984Z,73.80
2019-03-29T21:38:02.550Z,73.70
2019-03-29T21:40:32.226Z,78.70
2019-03-29T21:43:02.117Z,79.10
2019-03-29T21:45:31.860Z,79.00
2019-03-29T21:48:16.056Z,78.40
2019-03-29T21:50:32.637Z,80.00
2019-03-29T21:53:02.329Z,80.30
2019-03-29T21:55:32.093Z,82.20
2019-03-29T21:58:01.571Z,83.60
2019-03-29T22:00:31.059Z,85.00
2019-03-29T22:03:01.107Z,84.60
2019-03-29T22:05:30.659Z,86.80
2019-03-29T22:08:00.131Z,86.90
2019-03-29T22:10:29.685Z,89.00
2019-03-29T22:12:59.468Z,90.10
2019-03-29T22:15:29.070Z,89.40
2019-03-29T22:17:58.637Z,91.20
2019-03-29T22:20:28.183Z,91.90
2019-03-29T22:22:57.698Z,92.70
2019-03-29T22:25:27.172Z,92.50
2019-03-29T22:27:56.708Z,92.90
2019-03-29T22:30:26.313Z,94.10
2019-03-29T22:32:55.794Z,92.70
2019-03-29T22:35:25.258Z,92.50
2019-03-29T22:37:54.833Z,93.20
2019-03-29T22:40:24.233Z,94.00
2019-03-29T22:42:53.723Z,94.80
2019-03-29T22:45:23.257Z,94.90
2019-03-29T22:47:52.808Z,95.60
2019-03-29T22:50:22.395Z,95.10
2019-03-29T22:52:54.538Z,96.50
2019-03-29T22:55:23.237Z,95.30
2019-03-29T22:57:53.084Z,96.40
2019-03-29T23:00:32.897Z,97.40
2019-03-29T23:03:02.449Z,97.10
2019-03-29T23:05:31.992Z,98.20
2019-03-29T23:08:01.546Z,97.90
2019-03-29T23:10:31.101Z,97.00
2019-03-29T23:13:00.652Z,98.60
2019-03-29T23:15:30.153Z,96.40
2019-03-29T23:17:59.622Z,96.80
2019-03-29T23:20:29.126Z,97.80
2019-03-29T23:22:58.566Z,98.50
2019-03-29T23:25:28.033Z,98.60
2019-03-29T23:27:57.582Z,97.00
2019-03-29T23:30:27.153Z,97.70
2019-03-29T23:32:56.708Z,97.00
2019-03-29T23:35:26.252Z,98.20
2019-03-29T23:37:55.770Z,98.30
2019-03-29T23:40:25.173Z,99.10
2019-03-29T23:42:54.573Z,99.20
2019-03-29T23:45:24.081Z,99.90
2019-03-29T23:47:53.555Z,99.20
2019-03-29T23:50:23.106Z,99.90
2019-03-29T23:52:52.521Z,99.90
2019-03-29T23:55:22.010Z,99.60
2019-03-29T23:57:51.409Z,99.40
